KISQ/ISQ METAR and TAF weather

Enter ICAO airport designator
Station Type Date Time Source
KISQ METAR 2020/07/11 03:55 UTC NOAA

KISQ 110355Z AUTO 00000KT 1/2SM FG VV005 15/15 A2982 RMK AO2 T01460146 402320145


Station Type Date Time Source
KISQ Decoded METAR 2020/07/11 03:55 UTC NOAA

Manistique, Schoolcraft County Airport, MI, United States (KISQ) 45-58-29N 086-10-19W
Jul 10, 2020 - 11:55 PM EDT / 2020.07.11 0355 UTC
Wind: Calm:0
Visibility: 1/2 mile(s):0
Sky conditions: obscured
Weather: fog
Temperature: 58.3 F (14.6 C)
Dew Point: 58.3 F (14.6 C)
Relative Humidity: 100%
Pressure (altimeter): 29.82 in. Hg (1009 hPa)
ob: KISQ 110355Z AUTO 00000KT 1/2SM FG VV005 15/15 A2982 RMK AO2 T01460146 402320145
cycle: 4

Station Type Date Time Source
KISQ TAF UTC NOAA

Error!

Example: see airport list